sensor_id;sensor_type;location;lat;lon;timestamp;P1;durP1;ratioP1;P2;durP2;ratioP2
23317;SDS011;11831;55.918;37.746;2023-12-04T00:01:42;10.43;;;5.45;;
23317;SDS011;11831;55.918;37.746;2023-12-04T00:04:08;8.80;;;5.20;;
23317;SDS011;11831;55.918;37.746;2023-12-04T00:06:34;9.35;;;5.10;;
23317;SDS011;11831;55.918;37.746;2023-12-04T00:09:00;7.85;;;5.37;;
23317;SDS011;11831;55.918;37.746;2023-12-04T00:11:26;9.07;;;4.93;;
23317;SDS011;11831;55.918;37.746;2023-12-04T00:13:51;7.72;;;5.05;;
23317;SDS011;11831;55.918;37.746;2023-12-04T00:16:18;7.90;;;4.75;;
23317;SDS011;11831;55.918;37.746;2023-12-04T00:18:44;9.45;;;5.50;;
23317;SDS011;11831;55.918;37.746;2023-12-04T00:21:10;8.45;;;3.35;;
23317;SDS011;11831;55.918;37.746;2023-12-04T00:23:36;8.75;;;5.30;;
23317;SDS011;11831;55.918;37.746;2023-12-04T00:26:02;11.38;;;5.65;;
23317;SDS011;11831;55.918;37.746;2023-12-04T00:28:28;7.75;;;5.22;;
23317;SDS011;11831;55.918;37.746;2023-12-04T00:30:54;9.90;;;5.22;;
23317;SDS011;11831;55.918;37.746;2023-12-04T00:33:20;9.15;;;5.62;;
23317;SDS011;11831;55.918;37.746;2023-12-04T00:35:46;8.88;;;5.32;;
23317;SDS011;11831;55.918;37.746;2023-12-04T00:38:12;11.12;;;5.40;;
23317;SDS011;11831;55.918;37.746;2023-12-04T00:40:38;10.50;;;5.82;;
23317;SDS011;11831;55.918;37.746;2023-12-04T00:43:04;8.20;;;5.18;;
23317;SDS011;11831;55.918;37.746;2023-12-04T00:45:30;15.68;;;4.55;;
23317;SDS011;11831;55.918;37.746;2023-12-04T00:47:55;10.80;;;5.50;;
23317;SDS011;11831;55.918;37.746;2023-12-04T00:50:21;8.35;;;4.85;;
23317;SDS011;11831;55.918;37.746;2023-12-04T00:52:47;9.13;;;5.30;;
23317;SDS011;11831;55.918;37.746;2023-12-04T00:55:13;9.35;;;4.97;;
23317;SDS011;11831;55.918;37.746;2023-12-04T00:57:39;8.07;;;4.53;;
23317;SDS011;11831;55.918;37.746;2023-12-04T01:00:05;9.02;;;5.50;;
23317;SDS011;11831;55.918;37.746;2023-12-04T01:02:35;9.45;;;5.75;;
23317;SDS011;11831;55.918;37.746;2023-12-04T01:05:01;9.82;;;5.85;;
23317;SDS011;11831;55.918;37.746;2023-12-04T01:07:27;9.38;;;6.18;;
23317;SDS011;11831;55.918;37.746;2023-12-04T01:09:53;8.05;;;5.25;;
23317;SDS011;11831;55.918;37.746;2023-12-04T01:12:19;8.73;;;5.22;;
23317;SDS011;11831;55.918;37.746;2023-12-04T01:14:45;7.47;;;4.57;;
23317;SDS011;11831;55.918;37.746;2023-12-04T01:17:11;8.38;;;4.87;;
23317;SDS011;11831;55.918;37.746;2023-12-04T01:19:37;9.88;;;5.40;;
23317;SDS011;11831;55.918;37.746;2023-12-04T01:22:03;8.30;;;4.90;;
23317;SDS011;11831;55.918;37.746;2023-12-04T01:24:29;8.40;;;5.60;;
23317;SDS011;11831;55.918;37.746;2023-12-04T01:26:55;6.82;;;4.03;;
23317;SDS011;11831;55.918;37.746;2023-12-04T01:29:20;8.18;;;4.60;;
23317;SDS011;11831;55.918;37.746;2023-12-04T01:31:46;6.95;;;4.30;;
23317;SDS011;11831;55.918;37.746;2023-12-04T01:34:12;7.53;;;5.32;;
23317;SDS011;11831;55.918;37.746;2023-12-04T01:36:41;9.35;;;5.97;;
23317;SDS011;11831;55.918;37.746;2023-12-04T01:39:07;10.88;;;6.25;;
23317;SDS011;11831;55.918;37.746;2023-12-04T01:41:33;9.38;;;5.85;;
23317;SDS011;11831;55.918;37.746;2023-12-04T01:43:59;9.57;;;5.37;;
23317;SDS011;11831;55.918;37.746;2023-12-04T01:46:25;9.93;;;4.75;;
23317;SDS011;11831;55.918;37.746;2023-12-04T01:48:51;7.55;;;4.72;;
23317;SDS011;11831;55.918;37.746;2023-12-04T01:51:17;10.18;;;6.22;;
23317;SDS011;11831;55.918;37.746;2023-12-04T01:53:44;9.13;;;5.55;;
23317;SDS011;11831;55.918;37.746;2023-12-04T01:56:11;11.98;;;5.95;;
23317;SDS011;11831;55.918;37.746;2023-12-04T01:58:37;6.82;;;4.10;;
23317;SDS011;11831;55.918;37.746;2023-12-04T02:01:04;11.85;;;6.57;;
23317;SDS011;11831;55.918;37.746;2023-12-04T02:03:30;10.18;;;5.82;;
23317;SDS011;11831;55.918;37.746;2023-12-04T02:05:57;8.10;;;4.68;;
23317;SDS011;11831;55.918;37.746;2023-12-04T02:08:25;8.15;;;5.10;;
23317;SDS011;11831;55.918;37.746;2023-12-04T02:10:51;8.60;;;5.28;;
23317;SDS011;11831;55.918;37.746;2023-12-04T02:13:17;9.27;;;5.85;;
23317;SDS011;11831;55.918;37.746;2023-12-04T02:15:43;9.90;;;6.15;;
23317;SDS011;11831;55.918;37.746;2023-12-04T02:18:09;11.82;;;6.55;;
23317;SDS011;11831;55.918;37.746;2023-12-04T02:20:55;11.50;;;6.20;;
23317;SDS011;11831;55.918;37.746;2023-12-04T02:23:21;10.50;;;5.95;;
23317;SDS011;11831;55.918;37.746;2023-12-04T02:25:47;11.32;;;6.70;;
23317;SDS011;11831;55.918;37.746;2023-12-04T02:28:14;9.38;;;5.32;;
23317;SDS011;11831;55.918;37.746;2023-12-04T02:30:42;10.55;;;5.68;;
23317;SDS011;11831;55.918;37.746;2023-12-04T02:33:09;10.88;;;6.15;;
23317;SDS011;11831;55.918;37.746;2023-12-04T02:35:36;6.75;;;4.50;;
23317;SDS011;11831;55.918;37.746;2023-12-04T02:38:04;7.10;;;4.65;;
23317;SDS011;11831;55.918;37.746;2023-12-04T02:40:30;11.18;;;6.37;;
23317;SDS011;11831;55.918;37.746;2023-12-04T02:42:56;9.75;;;5.75;;
23317;SDS011;11831;55.918;37.746;2023-12-04T02:45:22;9.73;;;5.82;;
23317;SDS011;11831;55.918;37.746;2023-12-04T02:47:48;10.35;;;5.07;;
23317;SDS011;11831;55.918;37.746;2023-12-04T02:50:14;9.38;;;5.03;;
23317;SDS011;11831;55.918;37.746;2023-12-04T02:52:39;10.02;;;6.03;;
23317;SDS011;11831;55.918;37.746;2023-12-04T02:55:06;9.13;;;5.40;;
23317;SDS011;11831;55.918;37.746;2023-12-04T02:57:32;11.52;;;6.28;;
23317;SDS011;11831;55.918;37.746;2023-12-04T02:59:58;13.05;;;6.80;;
23317;SDS011;11831;55.918;37.746;2023-12-04T03:02:23;11.48;;;6.12;;
23317;SDS011;11831;55.918;37.746;2023-12-04T03:04:49;11.52;;;6.78;;
23317;SDS011;11831;55.918;37.746;2023-12-04T03:07:15;11.43;;;6.78;;
23317;SDS011;11831;55.918;37.746;2023-12-04T03:09:41;12.90;;;7.35;;
23317;SDS011;11831;55.918;37.746;2023-12-04T03:12:07;10.88;;;6.25;;
23317;SDS011;11831;55.918;37.746;2023-12-04T03:14:33;12.13;;;6.87;;
23317;SDS011;11831;55.918;37.746;2023-12-04T03:16:59;9.00;;;4.85;;
23317;SDS011;11831;55.918;37.746;2023-12-04T03:19:26;9.88;;;6.57;;
23317;SDS011;11831;55.918;37.746;2023-12-04T03:21:52;12.00;;;7.05;;
23317;SDS011;11831;55.918;37.746;2023-12-04T03:24:17;11.93;;;6.78;;
23317;SDS011;11831;55.918;37.746;2023-12-04T03:26:43;11.50;;;7.35;;
23317;SDS011;11831;55.918;37.746;2023-12-04T03:29:09;12.75;;;6.85;;
23317;SDS011;11831;55.918;37.746;2023-12-04T03:31:35;12.52;;;7.03;;
23317;SDS011;11831;55.918;37.746;2023-12-04T03:34:04;10.30;;;6.22;;
23317;SDS011;11831;55.918;37.746;2023-12-04T03:36:30;11.20;;;6.72;;
23317;SDS011;11831;55.918;37.746;2023-12-04T03:38:56;11.95;;;7.03;;
23317;SDS011;11831;55.918;37.746;2023-12-04T03:41:22;9.40;;;6.20;;
23317;SDS011;11831;55.918;37.746;2023-12-04T03:43:48;9.40;;;5.90;;
23317;SDS011;11831;55.918;37.746;2023-12-04T03:46:14;12.25;;;6.93;;
23317;SDS011;11831;55.918;37.746;2023-12-04T03:48:40;10.50;;;5.62;;
23317;SDS011;11831;55.918;37.746;2023-12-04T03:51:06;8.70;;;6.03;;
23317;SDS011;11831;55.918;37.746;2023-12-04T03:53:33;7.35;;;4.75;;
23317;SDS011;11831;55.918;37.746;2023-12-04T03:55:59;11.12;;;6.93;;
23317;SDS011;11831;55.918;37.746;2023-12-04T03:58:25;10.00;;;5.53;;
23317;SDS011;11831;55.918;37.746;2023-12-04T04:00:51;9.05;;;5.28;;
23317;SDS011;11831;55.918;37.746;2023-12-04T04:03:17;11.43;;;6.05;;
23317;SDS011;11831;55.918;37.746;2023-12-04T04:05:43;12.35;;;6.37;;
23317;SDS011;11831;55.918;37.746;2023-12-04T04:08:09;8.23;;;4.95;;
23317;SDS011;11831;55.918;37.746;2023-12-04T04:10:34;10.25;;;7.05;;
23317;SDS011;11831;55.918;37.746;2023-12-04T04:13:00;10.13;;;5.62;;
23317;SDS011;11831;55.918;37.746;2023-12-04T04:15:27;10.65;;;5.57;;
23317;SDS011;11831;55.918;37.746;2023-12-04T04:17:53;11.52;;;6.47;;
23317;SDS011;11831;55.918;37.746;2023-12-04T04:20:19;10.63;;;5.72;;
23317;SDS011;11831;55.918;37.746;2023-12-04T04:22:47;13.98;;;7.72;;
23317;SDS011;11831;55.918;37.746;2023-12-04T04:25:13;12.07;;;6.75;;
23317;SDS011;11831;55.918;37.746;2023-12-04T04:27:39;8.60;;;5.30;;
23317;SDS011;11831;55.918;37.746;2023-12-04T04:30:05;11.45;;;6.55;;
23317;SDS011;11831;55.918;37.746;2023-12-04T04:32:32;12.25;;;6.87;;
23317;SDS011;11831;55.918;37.746;2023-12-04T04:34:57;11.73;;;6.70;;
23317;SDS011;11831;55.918;37.746;2023-12-04T04:37:23;12.45;;;7.80;;
23317;SDS011;11831;55.918;37.746;2023-12-04T04:39:49;10.63;;;5.95;;
23317;SDS011;11831;55.918;37.746;2023-12-04T04:42:15;13.18;;;7.20;;
23317;SDS011;11831;55.918;37.746;2023-12-04T04:44:41;11.52;;;6.40;;
23317;SDS011;11831;55.918;37.746;2023-12-04T04:47:07;14.25;;;7.55;;
23317;SDS011;11831;55.918;37.746;2023-12-04T04:49:33;11.68;;;7.57;;
23317;SDS011;11831;55.918;37.746;2023-12-04T04:51:59;13.20;;;7.25;;
23317;SDS011;11831;55.918;37.746;2023-12-04T04:54:25;12.00;;;7.87;;
23317;SDS011;11831;55.918;37.746;2023-12-04T04:56:51;12.82;;;7.97;;
23317;SDS011;11831;55.918;37.746;2023-12-04T04:59:17;13.82;;;7.80;;
23317;SDS011;11831;55.918;37.746;2023-12-04T05:01:43;11.85;;;7.12;;
23317;SDS011;11831;55.918;37.746;2023-12-04T05:04:09;11.98;;;7.70;;
23317;SDS011;11831;55.918;37.746;2023-12-04T05:06:35;12.93;;;6.62;;
23317;SDS011;11831;55.918;37.746;2023-12-04T05:09:01;14.48;;;8.05;;
23317;SDS011;11831;55.918;37.746;2023-12-04T05:11:27;10.85;;;7.05;;
23317;SDS011;11831;55.918;37.746;2023-12-04T05:13:52;13.00;;;7.68;;
23317;SDS011;11831;55.918;37.746;2023-12-04T05:16:18;12.18;;;7.07;;
23317;SDS011;11831;55.918;37.746;2023-12-04T05:18:44;13.27;;;8.30;;
23317;SDS011;11831;55.918;37.746;2023-12-04T05:21:10;14.65;;;7.00;;
23317;SDS011;11831;55.918;37.746;2023-12-04T05:23:37;13.95;;;8.05;;
23317;SDS011;11831;55.918;37.746;2023-12-04T05:26:03;13.35;;;7.57;;
23317;SDS011;11831;55.918;37.746;2023-12-04T05:28:30;12.63;;;7.87;;
23317;SDS011;11831;55.918;37.746;2023-12-04T05:30:56;15.45;;;9.40;;
23317;SDS011;11831;55.918;37.746;2023-12-04T05:33:22;16.25;;;8.38;;
23317;SDS011;11831;55.918;37.746;2023-12-04T05:35:48;35.65;;;8.73;;
23317;SDS011;11831;55.918;37.746;2023-12-04T05:38:14;8.55;;;5.68;;
23317;SDS011;11831;55.918;37.746;2023-12-04T05:40:40;12.73;;;6.65;;
23317;SDS011;11831;55.918;37.746;2023-12-04T05:43:06;13.25;;;6.60;;
23317;SDS011;11831;55.918;37.746;2023-12-04T05:45:32;17.35;;;9.70;;
23317;SDS011;11831;55.918;37.746;2023-12-04T05:47:58;12.40;;;7.60;;
23317;SDS011;11831;55.918;37.746;2023-12-04T05:50:24;10.52;;;6.03;;
23317;SDS011;11831;55.918;37.746;2023-12-04T05:52:50;15.63;;;8.93;;
23317;SDS011;11831;55.918;37.746;2023-12-04T05:55:16;15.60;;;8.23;;
23317;SDS011;11831;55.918;37.746;2023-12-04T05:57:43;17.48;;;8.65;;
23317;SDS011;11831;55.918;37.746;2023-12-04T06:00:09;18.58;;;9.23;;
23317;SDS011;11831;55.918;37.746;2023-12-04T06:02:38;12.82;;;7.22;;
23317;SDS011;11831;55.918;37.746;2023-12-04T06:05:05;16.87;;;8.90;;
23317;SDS011;11831;55.918;37.746;2023-12-04T06:07:31;14.35;;;7.50;;
23317;SDS011;11831;55.918;37.746;2023-12-04T06:09:57;12.43;;;7.85;;
23317;SDS011;11831;55.918;37.746;2023-12-04T06:12:23;13.90;;;8.07;;
23317;SDS011;11831;55.918;37.746;2023-12-04T06:14:49;15.82;;;9.00;;
23317;SDS011;11831;55.918;37.746;2023-12-04T06:17:15;18.05;;;8.85;;
23317;SDS011;11831;55.918;37.746;2023-12-04T06:19:42;16.73;;;9.07;;
23317;SDS011;11831;55.918;37.746;2023-12-04T06:22:08;13.02;;;7.93;;
23317;SDS011;11831;55.918;37.746;2023-12-04T06:24:34;16.62;;;8.77;;
23317;SDS011;11831;55.918;37.746;2023-12-04T06:27:00;19.05;;;8.82;;
23317;SDS011;11831;55.918;37.746;2023-12-04T06:29:26;13.88;;;7.85;;
23317;SDS011;11831;55.918;37.746;2023-12-04T06:31:52;13.62;;;6.35;;
23317;SDS011;11831;55.918;37.746;2023-12-04T06:34:18;18.42;;;9.23;;
23317;SDS011;11831;55.918;37.746;2023-12-04T06:36:44;15.90;;;8.90;;
23317;SDS011;11831;55.918;37.746;2023-12-04T06:39:11;13.68;;;7.97;;
23317;SDS011;11831;55.918;37.746;2023-12-04T06:41:40;15.25;;;7.55;;
23317;SDS011;11831;55.918;37.746;2023-12-04T06:44:06;15.73;;;8.30;;
23317;SDS011;11831;55.918;37.746;2023-12-04T06:46:34;14.32;;;7.87;;
23317;SDS011;11831;55.918;37.746;2023-12-04T06:49:01;17.87;;;8.88;;
23317;SDS011;11831;55.918;37.746;2023-12-04T06:51:27;15.32;;;7.80;;
23317;SDS011;11831;55.918;37.746;2023-12-04T06:53:53;16.12;;;8.88;;
23317;SDS011;11831;55.918;37.746;2023-12-04T06:56:19;15.07;;;8.50;;
23317;SDS011;11831;55.918;37.746;2023-12-04T06:58:45;12.07;;;7.40;;
23317;SDS011;11831;55.918;37.746;2023-12-04T07:01:11;14.70;;;8.13;;
23317;SDS011;11831;55.918;37.746;2023-12-04T07:03:37;13.85;;;8.40;;
23317;SDS011;11831;55.918;37.746;2023-12-04T07:06:03;21.05;;;8.27;;
23317;SDS011;11831;55.918;37.746;2023-12-04T07:08:30;14.45;;;8.15;;
23317;SDS011;11831;55.918;37.746;2023-12-04T07:10:56;14.48;;;8.65;;
23317;SDS011;11831;55.918;37.746;2023-12-04T07:13:22;11.15;;;7.00;;
23317;SDS011;11831;55.918;37.746;2023-12-04T07:15:48;13.85;;;8.05;;
23317;SDS011;11831;55.918;37.746;2023-12-04T07:18:14;14.40;;;7.78;;
23317;SDS011;11831;55.918;37.746;2023-12-04T07:20:40;11.60;;;5.87;;
23317;SDS011;11831;55.918;37.746;2023-12-04T07:23:06;13.38;;;7.45;;
23317;SDS011;11831;55.918;37.746;2023-12-04T07:25:31;9.98;;;6.05;;
23317;SDS011;11831;55.918;37.746;2023-12-04T07:27:57;13.65;;;8.02;;
23317;SDS011;11831;55.918;37.746;2023-12-04T07:30:23;14.75;;;8.05;;
23317;SDS011;11831;55.918;37.746;2023-12-04T07:32:50;14.73;;;7.68;;
23317;SDS011;11831;55.918;37.746;2023-12-04T07:35:16;11.23;;;6.93;;
23317;SDS011;11831;55.918;37.746;2023-12-04T07:37:43;13.50;;;8.07;;
23317;SDS011;11831;55.918;37.746;2023-12-04T07:40:10;13.93;;;8.15;;
23317;SDS011;11831;55.918;37.746;2023-12-04T07:42:36;12.95;;;8.10;;
23317;SDS011;11831;55.918;37.746;2023-12-04T07:45:02;14.65;;;8.27;;
23317;SDS011;11831;55.918;37.746;2023-12-04T07:47:29;12.65;;;7.75;;
23317;SDS011;11831;55.918;37.746;2023-12-04T07:49:55;17.17;;;8.93;;
23317;SDS011;11831;55.918;37.746;2023-12-04T07:52:21;14.52;;;7.93;;
23317;SDS011;11831;55.918;37.746;2023-12-04T07:54:47;14.35;;;8.07;;
23317;SDS011;11831;55.918;37.746;2023-12-04T07:57:13;15.07;;;8.38;;
23317;SDS011;11831;55.918;37.746;2023-12-04T07:59:40;10.38;;;6.12;;
23317;SDS011;11831;55.918;37.746;2023-12-04T08:02:06;12.30;;;6.70;;
23317;SDS011;11831;55.918;37.746;2023-12-04T08:04:31;15.32;;;8.27;;
23317;SDS011;11831;55.918;37.746;2023-12-04T08:06:57;15.75;;;8.35;;
23317;SDS011;11831;55.918;37.746;2023-12-04T08:09:23;13.75;;;7.80;;
23317;SDS011;11831;55.918;37.746;2023-12-04T08:11:49;12.75;;;6.45;;
23317;SDS011;11831;55.918;37.746;2023-12-04T08:14:15;13.65;;;8.10;;
23317;SDS011;11831;55.918;37.746;2023-12-04T08:16:41;11.52;;;6.43;;
23317;SDS011;11831;55.918;37.746;2023-12-04T08:19:07;16.40;;;8.52;;
23317;SDS011;11831;55.918;37.746;2023-12-04T08:21:33;14.25;;;7.97;;
23317;SDS011;11831;55.918;37.746;2023-12-04T08:23:59;13.32;;;7.70;;
23317;SDS011;11831;55.918;37.746;2023-12-04T08:26:25;13.05;;;7.68;;
23317;SDS011;11831;55.918;37.746;2023-12-04T08:28:52;15.18;;;7.97;;
23317;SDS011;11831;55.918;37.746;2023-12-04T08:31:18;15.02;;;7.60;;
23317;SDS011;11831;55.918;37.746;2023-12-04T08:33:44;9.80;;;5.80;;
23317;SDS011;11831;55.918;37.746;2023-12-04T08:36:11;13.07;;;7.32;;
23317;SDS011;11831;55.918;37.746;2023-12-04T08:38:37;11.40;;;6.18;;
23317;SDS011;11831;55.918;37.746;2023-12-04T08:41:03;16.12;;;8.60;;
23317;SDS011;11831;55.918;37.746;2023-12-04T08:43:29;16.27;;;8.93;;
23317;SDS011;11831;55.918;37.746;2023-12-04T08:45:55;11.93;;;7.80;;
23317;SDS011;11831;55.918;37.746;2023-12-04T08:48:21;15.32;;;8.23;;
23317;SDS011;11831;55.918;37.746;2023-12-04T08:50:47;16.58;;;8.80;;
23317;SDS011;11831;55.918;37.746;2023-12-04T08:53:14;14.68;;;8.73;;
23317;SDS011;11831;55.918;37.746;2023-12-04T08:55:40;15.35;;;8.73;;
23317;SDS011;11831;55.918;37.746;2023-12-04T08:58:06;16.05;;;8.90;;
23317;SDS011;11831;55.918;37.746;2023-12-04T09:00:32;19.02;;;9.80;;
23317;SDS011;11831;55.918;37.746;2023-12-04T09:02:58;13.90;;;8.15;;
23317;SDS011;11831;55.918;37.746;2023-12-04T09:05:24;17.37;;;9.73;;
23317;SDS011;11831;55.918;37.746;2023-12-04T09:07:50;16.58;;;8.73;;
23317;SDS011;11831;55.918;37.746;2023-12-04T09:10:16;22.40;;;10.93;;
23317;SDS011;11831;55.918;37.746;2023-12-04T09:12:43;21.45;;;9.63;;
23317;SDS011;11831;55.918;37.746;2023-12-04T09:15:09;19.98;;;9.80;;
23317;SDS011;11831;55.918;37.746;2023-12-04T09:17:35;17.23;;;9.68;;
23317;SDS011;11831;55.918;37.746;2023-12-04T09:20:01;17.15;;;10.48;;
23317;SDS011;11831;55.918;37.746;2023-12-04T09:22:29;22.33;;;11.98;;
23317;SDS011;11831;55.918;37.746;2023-12-04T09:24:56;14.15;;;8.02;;
23317;SDS011;11831;55.918;37.746;2023-12-04T09:27:22;15.88;;;9.25;;
23317;SDS011;11831;55.918;37.746;2023-12-04T09:29:48;19.12;;;10.50;;
23317;SDS011;11831;55.918;37.746;2023-12-04T09:32:14;16.48;;;9.55;;
23317;SDS011;11831;55.918;37.746;2023-12-04T09:34:40;16.05;;;10.20;;
23317;SDS011;11831;55.918;37.746;2023-12-04T09:37:05;15.80;;;8.73;;
23317;SDS011;11831;55.918;37.746;2023-12-04T09:39:33;20.05;;;10.38;;
23317;SDS011;11831;55.918;37.746;2023-12-04T09:41:59;21.02;;;10.25;;
23317;SDS011;11831;55.918;37.746;2023-12-04T09:44:25;19.25;;;9.00;;
23317;SDS011;11831;55.918;37.746;2023-12-04T09:46:53;28.73;;;10.00;;
23317;SDS011;11831;55.918;37.746;2023-12-04T09:49:19;17.52;;;9.05;;
23317;SDS011;11831;55.918;37.746;2023-12-04T09:51:45;18.73;;;10.80;;
23317;SDS011;11831;55.918;37.746;2023-12-04T09:54:11;14.13;;;8.98;;
23317;SDS011;11831;55.918;37.746;2023-12-04T09:56:37;13.98;;;7.82;;
23317;SDS011;11831;55.918;37.746;2023-12-04T09:59:03;21.98;;;10.23;;
23317;SDS011;11831;55.918;37.746;2023-12-04T10:01:31;20.70;;;11.00;;
23317;SDS011;11831;55.918;37.746;2023-12-04T10:04:01;17.35;;;9.73;;
23317;SDS011;11831;55.918;37.746;2023-12-04T10:06:29;18.12;;;9.65;;
23317;SDS011;11831;55.918;37.746;2023-12-04T10:08:56;14.65;;;8.05;;
23317;SDS011;11831;55.918;37.746;2023-12-04T10:11:24;16.58;;;9.40;;
23317;SDS011;11831;55.918;37.746;2023-12-04T10:13:50;16.67;;;9.70;;
23317;SDS011;11831;55.918;37.746;2023-12-04T10:16:36;17.65;;;9.50;;
23317;SDS011;11831;55.918;37.746;2023-12-04T10:19:15;16.65;;;8.77;;
23317;SDS011;11831;55.918;37.746;2023-12-04T10:21:42;15.07;;;7.57;;
23317;SDS011;11831;55.918;37.746;2023-12-04T10:24:08;17.20;;;9.45;;
23317;SDS011;11831;55.918;37.746;2023-12-04T10:26:34;16.75;;;8.73;;
23317;SDS011;11831;55.918;37.746;2023-12-04T10:29:02;16.02;;;9.10;;
23317;SDS011;11831;55.918;37.746;2023-12-04T10:31:32;17.48;;;9.38;;
23317;SDS011;11831;55.918;37.746;2023-12-04T10:33:59;16.67;;;8.95;;
23317;SDS011;11831;55.918;37.746;2023-12-04T10:36:25;17.02;;;9.27;;
23317;SDS011;11831;55.918;37.746;2023-12-04T10:38:58;18.12;;;10.23;;
23317;SDS011;11831;55.918;37.746;2023-12-04T10:41:25;16.37;;;8.88;;
23317;SDS011;11831;55.918;37.746;2023-12-04T10:43:51;18.55;;;9.88;;
23317;SDS011;11831;55.918;37.746;2023-12-04T10:46:18;17.33;;;9.48;;
23317;SDS011;11831;55.918;37.746;2023-12-04T10:48:44;16.67;;;9.13;;
23317;SDS011;11831;55.918;37.746;2023-12-04T10:51:11;16.58;;;9.18;;
23317;SDS011;11831;55.918;37.746;2023-12-04T10:53:38;15.13;;;9.20;;
23317;SDS011;11831;55.918;37.746;2023-12-04T10:56:07;18.12;;;10.20;;
23317;SDS011;11831;55.918;37.746;2023-12-04T10:58:34;17.45;;;9.60;;
23317;SDS011;11831;55.918;37.746;2023-12-04T11:01:01;19.00;;;9.45;;
23317;SDS011;11831;55.918;37.746;2023-12-04T11:03:31;14.35;;;8.30;;
23317;SDS011;11831;55.918;37.746;2023-12-04T11:05:59;17.10;;;9.73;;
23317;SDS011;11831;55.918;37.746;2023-12-04T11:08:25;17.75;;;9.50;;
23317;SDS011;11831;55.918;37.746;2023-12-04T11:10:56;17.35;;;10.13;;
23317;SDS011;11831;55.918;37.746;2023-12-04T11:13:30;13.20;;;7.95;;
23317;SDS011;11831;55.918;37.746;2023-12-04T11:15:58;17.08;;;9.60;;
23317;SDS011;11831;55.918;37.746;2023-12-04T11:18:25;17.08;;;9.45;;
23317;SDS011;11831;55.918;37.746;2023-12-04T11:21:04;16.95;;;9.80;;
23317;SDS011;11831;55.918;37.746;2023-12-04T11:23:32;17.55;;;8.48;;
23317;SDS011;11831;55.918;37.746;2023-12-04T11:25:58;16.45;;;8.02;;
23317;SDS011;11831;55.918;37.746;2023-12-04T11:28:26;15.55;;;8.50;;
23317;SDS011;11831;55.918;37.746;2023-12-04T11:30:53;18.35;;;9.75;;
23317;SDS011;11831;55.918;37.746;2023-12-04T11:33:20;17.45;;;9.02;;
23317;SDS011;11831;55.918;37.746;2023-12-04T11:35:45;19.27;;;10.00;;
23317;SDS011;11831;55.918;37.746;2023-12-04T11:38:14;15.32;;;9.20;;
23317;SDS011;11831;55.918;37.746;2023-12-04T11:40:41;17.67;;;9.70;;
23317;SDS011;11831;55.918;37.746;2023-12-04T11:43:25;17.33;;;9.25;;
23317;SDS011;11831;55.918;37.746;2023-12-04T11:45:52;19.67;;;10.95;;
23317;SDS011;11831;55.918;37.746;2023-12-04T11:48:22;20.20;;;10.88;;
23317;SDS011;11831;55.918;37.746;2023-12-04T11:50:48;19.45;;;10.40;;
23317;SDS011;11831;55.918;37.746;2023-12-04T11:53:14;15.40;;;8.50;;
23317;SDS011;11831;55.918;37.746;2023-12-04T11:55:40;14.70;;;8.30;;
23317;SDS011;11831;55.918;37.746;2023-12-04T11:58:10;15.35;;;9.43;;
23317;SDS011;11831;55.918;37.746;2023-12-04T12:00:36;18.50;;;9.57;;
23317;SDS011;11831;55.918;37.746;2023-12-04T12:03:07;15.43;;;9.30;;
23317;SDS011;11831;55.918;37.746;2023-12-04T12:05:35;19.42;;;10.45;;
23317;SDS011;11831;55.918;37.746;2023-12-04T12:08:02;16.58;;;9.68;;
23317;SDS011;11831;55.918;37.746;2023-12-04T12:10:29;17.35;;;9.93;;
23317;SDS011;11831;55.918;37.746;2023-12-04T12:12:55;16.85;;;9.70;;
23317;SDS011;11831;55.918;37.746;2023-12-04T12:15:22;17.35;;;10.25;;
23317;SDS011;11831;55.918;37.746;2023-12-04T12:17:49;18.75;;;9.65;;
23317;SDS011;11831;55.918;37.746;2023-12-04T12:20:15;13.52;;;8.88;;
23317;SDS011;11831;55.918;37.746;2023-12-04T12:22:41;22.90;;;11.25;;
23317;SDS011;11831;55.918;37.746;2023-12-04T12:25:12;18.80;;;10.73;;
23317;SDS011;11831;55.918;37.746;2023-12-04T12:27:38;19.25;;;10.77;;
23317;SDS011;11831;55.918;37.746;2023-12-04T12:30:05;17.12;;;9.60;;
23317;SDS011;11831;55.918;37.746;2023-12-04T12:32:32;19.40;;;11.27;;
23317;SDS011;11831;55.918;37.746;2023-12-04T12:34:58;19.33;;;11.57;;
23317;SDS011;11831;55.918;37.746;2023-12-04T12:37:24;21.83;;;10.85;;
23317;SDS011;11831;55.918;37.746;2023-12-04T12:39:50;21.05;;;10.90;;
23317;SDS011;11831;55.918;37.746;2023-12-04T12:42:29;18.23;;;10.75;;
23317;SDS011;11831;55.918;37.746;2023-12-04T12:44:55;20.35;;;10.15;;
23317;SDS011;11831;55.918;37.746;2023-12-04T12:47:24;19.08;;;9.57;;
23317;SDS011;11831;55.918;37.746;2023-12-04T12:49:51;17.62;;;10.15;;
23317;SDS011;11831;55.918;37.746;2023-12-04T12:52:17;18.37;;;9.73;;
23317;SDS011;11831;55.918;37.746;2023-12-04T12:54:45;17.58;;;9.70;;
23317;SDS011;11831;55.918;37.746;2023-12-04T12:57:11;18.00;;;10.02;;
23317;SDS011;11831;55.918;37.746;2023-12-04T12:59:37;19.50;;;11.32;;
23317;SDS011;11831;55.918;37.746;2023-12-04T13:02:04;22.33;;;10.52;;
23317;SDS011;11831;55.918;37.746;2023-12-04T13:04:49;18.05;;;9.43;;
23317;SDS011;11831;55.918;37.746;2023-12-04T13:07:16;14.68;;;8.20;;
23317;SDS011;11831;55.918;37.746;2023-12-04T13:09:44;16.52;;;9.65;;
23317;SDS011;11831;55.918;37.746;2023-12-04T13:12:10;15.68;;;8.50;;
23317;SDS011;11831;55.918;37.746;2023-12-04T13:14:36;15.30;;;9.52;;
23317;SDS011;11831;55.918;37.746;2023-12-04T13:17:02;17.12;;;9.15;;
23317;SDS011;11831;55.918;37.746;2023-12-04T13:19:28;15.75;;;9.32;;
23317;SDS011;11831;55.918;37.746;2023-12-04T13:21:54;16.23;;;9.35;;
23317;SDS011;11831;55.918;37.746;2023-12-04T13:24:20;15.13;;;8.57;;
23317;SDS011;11831;55.918;37.746;2023-12-04T13:26:46;16.45;;;9.40;;
23317;SDS011;11831;55.918;37.746;2023-12-04T13:29:12;15.35;;;7.62;;
23317;SDS011;11831;55.918;37.746;2023-12-04T13:31:42;15.90;;;8.27;;
23317;SDS011;11831;55.918;37.746;2023-12-04T13:34:09;13.73;;;8.20;;
23317;SDS011;11831;55.918;37.746;2023-12-04T13:36:36;14.32;;;9.18;;
23317;SDS011;11831;55.918;37.746;2023-12-04T13:39:02;15.15;;;7.55;;
23317;SDS011;11831;55.918;37.746;2023-12-04T13:41:30;18.12;;;9.35;;
23317;SDS011;11831;55.918;37.746;2023-12-04T13:44:15;19.87;;;10.35;;
23317;SDS011;11831;55.918;37.746;2023-12-04T13:46:41;15.32;;;8.65;;
23317;SDS011;11831;55.918;37.746;2023-12-04T13:49:07;16.55;;;8.88;;
23317;SDS011;11831;55.918;37.746;2023-12-04T13:51:33;20.05;;;9.10;;
23317;SDS011;11831;55.918;37.746;2023-12-04T13:54:00;19.80;;;9.98;;
23317;SDS011;11831;55.918;37.746;2023-12-04T13:56:40;17.75;;;9.18;;
23317;SDS011;11831;55.918;37.746;2023-12-04T13:59:22;14.13;;;7.50;;
23317;SDS011;11831;55.918;37.746;2023-12-04T14:01:49;16.50;;;9.95;;
23317;SDS011;11831;55.918;37.746;2023-12-04T14:04:17;19.42;;;9.43;;
23317;SDS011;11831;55.918;37.746;2023-12-04T14:06:43;15.50;;;8.80;;
23317;SDS011;11831;55.918;37.746;2023-12-04T14:09:10;20.00;;;10.15;;
23317;SDS011;11831;55.918;37.746;2023-12-04T14:11:42;17.62;;;9.60;;
23317;SDS011;11831;55.918;37.746;2023-12-04T14:14:10;17.40;;;9.60;;
23317;SDS011;11831;55.918;37.746;2023-12-04T14:16:36;19.02;;;10.68;;
23317;SDS011;11831;55.918;37.746;2023-12-04T14:19:02;20.42;;;10.75;;
23317;SDS011;11831;55.918;37.746;2023-12-04T14:21:28;18.87;;;11.30;;